createdAt,value
2023-03-26T00:04:10.600Z,1006.4960383312821
2023-03-26T00:10:31.225Z,1006.5715691996028
2023-03-26T00:16:54.370Z,1006.6102468738551
2023-03-26T00:24:11.308Z,1006.7172028891447
2023-03-26T00:30:31.068Z,1006.7803549484208
2023-03-26T00:36:51.209Z,1006.8687473803274
2023-03-26T00:43:13.866Z,1006.9476014850353
2023-03-26T00:49:33.648Z,1006.9852153366244
2023-03-26T00:55:54.288Z,1007.0119026079591
2023-03-26T01:02:15.498Z,1007.0318586807881
2023-03-26T01:08:36.215Z,1006.9626567849563
2023-03-26T01:14:56.958Z,1006.9664577645779
2023-03-26T01:21:17.473Z,1007.0365055032424
2023-03-26T01:27:38.589Z,1007.090884407172
2023-03-26T01:33:58.334Z,1007.1237658401095
2023-03-26T01:40:19.823Z,1007.0872265626668
2023-03-26T01:46:40.897Z,1007.0749826173122
2023-03-26T01:53:02.934Z,1007.0108828895945
2023-03-26T01:59:23.351Z,1007.0187361272444
2023-03-26T02:05:42.163Z,1007.0742607295177
2023-03-26T02:12:02.930Z,1007.0586860417949
2023-03-26T02:19:55.071Z,1007.0676402921472
2023-03-26T02:26:16.085Z,1006.995395249997
2023-03-26T02:32:37.313Z,1006.9349777507226
2023-03-26T02:38:57.368Z,1006.9011947641982
2023-03-26T02:46:03.811Z,1006.8582425366267
2023-03-26T02:52:24.940Z,1006.7989066514758
2023-03-26T02:58:45.871Z,1006.7693961270365
2023-03-26T03:09:28.957Z,1006.7303165905438
2023-03-26T03:15:48.886Z,1006.700972807392
2023-03-26T03:22:08.310Z,1006.6901600892069
2023-03-26T03:28:30.296Z,1006.6834987725089
2023-03-26T03:34:51.451Z,1006.7194252102904
2023-03-26T03:46:44.597Z,1006.7436600606437
2023-03-26T03:53:06.319Z,1006.7500330615612
2023-03-26T03:59:29.173Z,1006.7625933312609
2023-03-26T04:05:49.343Z,1006.7615516638361
2023-03-26T04:13:05.799Z,1006.7604000730811
2023-03-26T04:19:26.476Z,1006.7181847787499
2023-03-26T04:25:46.934Z,1006.6752132910761
2023-03-26T04:32:07.060Z,1006.6435873776995
2023-03-26T04:39:18.884Z,1006.6386090403582
2023-03-26T04:45:38.343Z,1006.6051786912249
2023-03-26T04:51:57.940Z,1006.5701357880577
2023-03-26T04:58:18.180Z,1006.6029089292282
2023-03-26T05:09:31.592Z,1006.647441701937
2023-03-26T05:15:52.181Z,1006.7091102791081
2023-03-26T05:22:14.574Z,1006.709639331489
2023-03-26T05:28:33.988Z,1006.6698384219403
2023-03-26T05:34:55.341Z,1006.6783278969351
2023-03-26T05:41:17.521Z,1006.710708671561
2023-03-26T05:47:41.951Z,1006.7151416648023
2023-03-26T05:54:07.825Z,1006.7590385554424
2023-03-26T06:00:32.251Z,1006.772875371045
2023-03-26T06:08:29.484Z,1006.7056690991155
2023-03-26T06:14:52.993Z,1006.6313609585445
2023-03-26T06:27:40.382Z,1006.5530959320913
2023-03-26T06:40:16.032Z,1006.6119511841197
2023-03-26T06:46:41.061Z,1006.6733583489691
2023-03-26T06:57:03.438Z,1006.7234249367849
2023-03-26T07:04:14.384Z,1006.7655395393772
2023-03-26T07:10:37.070Z,1006.7742349537737
2023-03-26T07:32:27.564Z,1006.5692227844445
2023-03-26T07:38:50.695Z,1006.5449928351402
2023-03-26T07:45:38.015Z,1006.5600837736047
2023-03-26T07:51:59.294Z,1006.5677134307862
2023-03-26T07:58:20.669Z,1006.5368254955789
2023-03-26T08:04:41.980Z,1006.5513768560895
2023-03-26T08:12:28.943Z,1006.5564616008076
2023-03-26T08:23:50.681Z,1006.4954496823079
2023-03-26T08:32:07.718Z,1006.5038754178466
2023-03-26T08:38:29.348Z,1006.5159740254421
2023-03-26T08:44:50.268Z,1006.5551728550629
2023-03-26T08:53:56.421Z,1006.6179422977938
2023-03-26T09:00:28.696Z,1006.631086659119
2023-03-26T09:06:52.192Z,1006.6076580552128
2023-03-26T09:16:24.355Z,1006.606398145387
2023-03-26T09:22:46.221Z,1006.6485508789293
2023-03-26T09:29:11.923Z,1006.6029154994741
2023-03-26T09:40:20.131Z,1006.6712494448968
2023-03-26T09:46:46.192Z,1006.703085885338
2023-03-26T09:53:07.779Z,1006.7672303530014
2023-03-26T09:59:28.639Z,1006.7902111159472
2023-03-26T10:05:50.060Z,1006.7979403049198
2023-03-26T10:12:10.981Z,1006.7561536806547
2023-03-26T10:18:32.016Z,1006.7889368780542
2023-03-26T10:24:53.145Z,1006.7447981680054
2023-03-26T10:31:15.016Z,1006.6871940368073
2023-03-26T10:37:36.337Z,1006.6923688225838
2023-03-26T10:44:07.273Z,1006.6472676520825
2023-03-26T10:54:24.929Z,1006.6250215742169
2023-03-26T11:01:16.180Z,1006.6581555926786
2023-03-26T11:07:37.982Z,1006.6522614927803
2023-03-26T11:13:59.495Z,1006.6714617801031
2023-03-26T11:20:21.231Z,1006.7440400689184
2023-03-26T11:26:43.282Z,1006.7428691754518
2023-03-26T11:34:05.349Z,1006.7628344842951
2023-03-26T11:41:59.875Z,1006.7440044616104
2023-03-26T11:48:21.480Z,1006.7409575607022
2023-03-26T11:54:43.185Z,1006.759469960368
2023-03-26T12:01:06.182Z,1006.7280253672927
2023-03-26T12:07:27.526Z,1006.6469899987632
2023-03-26T12:13:49.030Z,1006.586454000449
2023-03-26T12:20:10.331Z,1006.5824254524605
2023-03-26T12:31:34.880Z,1006.591471007656
2023-03-26T12:37:56.033Z,1006.5855034402533
2023-03-26T12:44:47.303Z,1006.5254783250522
2023-03-26T12:51:18.634Z,1006.5452773394446
2023-03-26T13:04:19.166Z,1006.5984303365809
2023-03-26T13:10:40.746Z,1006.5627771808677
2023-03-26T13:17:02.195Z,1006.5981595558686
2023-03-26T13:25:27.749Z,1006.5890132126673
2023-03-26T13:31:49.372Z,1006.5117637972509
2023-03-26T13:38:10.778Z,1006.4778177377559
2023-03-26T13:44:32.351Z,1006.5210133118261
2023-03-26T13:55:28.227Z,1006.5058773876659
2023-03-26T14:02:53.262Z,1006.4858496425187
2023-03-26T14:09:15.018Z,1006.4722466837588
2023-03-26T14:18:00.723Z,1006.5171289073796
2023-03-26T14:24:22.086Z,1006.53072632544
2023-03-26T14:30:44.044Z,1006.6208697995942
2023-03-26T14:37:05.617Z,1006.6821969695189
2023-03-26T14:43:27.299Z,1006.7056015867856
2023-03-26T14:49:48.489Z,1006.6806424316825
2023-03-26T14:56:10.020Z,1006.7282869214839
2023-03-26T15:02:31.930Z,1006.7992076632305
2023-03-26T15:08:53.512Z,1006.8617836659878
2023-03-26T15:15:15.147Z,1006.8835539135083
2023-03-26T15:27:40.389Z,1006.9204449898997
2023-03-26T15:34:02.535Z,1006.9691962119833
2023-03-26T15:40:23.880Z,1007.0385345624679
2023-03-26T16:03:27.116Z,1007.3101623357031
2023-03-26T16:09:48.032Z,1007.3592856318719
2023-03-26T16:16:09.041Z,1007.4010354786228
2023-03-26T16:22:30.249Z,1007.462847363036
2023-03-26T16:28:51.111Z,1007.5365236497868
2023-03-26T16:35:12.456Z,1007.5885610593546
2023-03-26T16:46:33.437Z,1007.7019474878836
2023-03-26T16:52:54.481Z,1007.7989186961091
2023-03-26T16:59:15.908Z,1007.9052206224198
2023-03-26T17:05:37.574Z,1008.0339978960927
2023-03-26T17:12:00.556Z,1008.1071789237
2023-03-26T17:18:25.217Z,1008.1941967759554
2023-03-26T17:30:33.885Z,1008.3532855961126
2023-03-26T17:36:55.614Z,1008.4673300185677
2023-03-26T17:44:21.632Z,1008.6097874943024
2023-03-26T17:50:40.986Z,1008.7545162215825
2023-03-26T17:57:03.050Z,1008.8468715930155
2023-03-26T18:03:23.887Z,1008.919974543374
2023-03-26T18:09:42.962Z,1009.0433989742749
2023-03-26T18:22:16.842Z,1009.2467331618641
2023-03-26T18:28:40.063Z,1009.3242461289257
2023-03-26T18:35:00.781Z,1009.4278496276465
2023-03-26T18:41:21.295Z,1009.507036723573
2023-03-26T18:47:41.709Z,1009.5583216490459
2023-03-26T18:54:02.373Z,1009.6284561561835
2023-03-26T19:05:30.386Z,1009.7340483550496
2023-03-26T19:11:50.714Z,1009.8031317744
2023-03-26T19:18:11.772Z,1009.8475118528047
2023-03-26T19:24:32.016Z,1009.8922864355462
2023-03-26T19:30:54.344Z,1009.9416651645063
2023-03-26T19:37:14.297Z,1010.0009000759844
2023-03-26T19:43:34.291Z,1010.0757136057208
2023-03-26T19:49:53.700Z,1010.141313299133
2023-03-26T19:59:17.573Z,1010.2463990490295
2023-03-26T20:07:48.430Z,1010.3072441420364
2023-03-26T20:14:07.014Z,1010.4098105095229
2023-03-26T20:20:27.013Z,1010.4986127061592
2023-03-26T20:28:47.470Z,1010.5756708092931
2023-03-26T20:35:08.241Z,1010.6423193931519
2023-03-26T20:41:29.238Z,1010.7454003508208
2023-03-26T20:49:27.010Z,1010.8464993440189
2023-03-26T21:05:08.257Z,1011.0392159918013
2023-03-26T21:14:42.498Z,1011.1032917700572
2023-03-26T21:21:14.099Z,1011.1701635263878
2023-03-26T21:27:41.291Z,1011.2224889355381
2023-03-26T21:34:00.010Z,1011.2866665897852
2023-03-26T21:42:49.661Z,1011.4621190522139
2023-03-26T21:58:39.389Z,1011.7761733874672
2023-03-26T22:04:58.297Z,1011.8625836127821
2023-03-26T22:11:17.217Z,1011.9294987757629
2023-03-26T22:21:17.244Z,1012.1134059974255
2023-03-26T22:27:44.138Z,1012.218390530424
2023-03-26T22:34:04.259Z,1012.351507996914
2023-03-26T22:40:22.855Z,1012.4817385125245
2023-03-26T22:50:15.375Z,1012.653641870806
2023-03-26T22:56:35.729Z,1012.7549395628471
2023-03-26T23:07:15.444Z,1012.8479293064363
2023-03-26T23:13:35.646Z,1012.9431289860548
2023-03-26T23:19:54.360Z,1013.0756593238326
2023-03-26T23:26:13.034Z,1013.1563016046841
2023-03-26T23:33:16.762Z,1013.2848858539214
2023-03-26T23:43:00.688Z,1013.3819614030069
2023-03-26T23:54:41.174Z,1013.4927029556534
